Time;durP1;ratioP1;P1;durP2;ratioP2;P2;SDS_P1;SDS_P2;PMS_P1;PMS_P2;Temp;Humidity;BMP_temperature;BMP_pressure;BME280_temperature;BME280_humidity;BME280_pressure;Samples;Min_cycle;Max_cycle;Signal;HPM_P1;HPM_P2
2021/12/12 00:00:41;;;;;;;3.17;2.65;;;17.40;66.40;;;;;;2276540;62;30186;-84
2021/12/12 00:03:19;;;;;;;5.25;2.72;;;17.40;66.40;;;;;;2283225;62;30409;-82
2021/12/12 00:05:48;;;;;;;3.85;2.90;;;17.40;66.30;;;;;;2283610;62;31072;-82
2021/12/12 00:08:14;;;;;;;2.90;2.70;;;17.40;66.40;;;;;;2284264;62;30888;-80
2021/12/12 00:10:41;;;;;;;3.10;2.70;;;17.40;66.80;;;;;;2276962;62;30244;-78
2021/12/12 00:13:12;;;;;;;4.05;2.72;;;17.50;66.40;;;;;;2277192;62;30091;-82
2021/12/12 09:26:21;;;;;;;2.40;2.20;;;13.80;75.90;;;;;;2299418;62;30156;-85
2021/12/12 09:28:52;;;;;;;3.05;2.60;;;13.80;73.60;;;;;;2284273;62;30258;-85
2021/12/12 09:31:27;;;;;;;2.72;2.53;;;13.80;74.70;;;;;;2283529;62;30127;-87
2021/12/12 09:34:08;;;;;;;4.78;2.65;;;13.90;75.70;;;;;;2283701;62;30239;-88
2021/12/12 09:36:47;;;;;;;2.85;2.65;;;13.90;76.30;;;;;;2283884;62;30233;-89
2021/12/12 09:39:24;;;;;;;2.70;2.50;;;13.90;77.10;;;;;;2283398;62;30070;-89
2021/12/12 09:42:01;;;;;;;3.63;2.50;;;14.00;77.40;;;;;;2283893;62;30204;-87
2021/12/12 09:44:40;;;;;;;2.53;2.33;;;14.00;77.60;;;;;;2290961;62;30730;-88
2021/12/12 09:47:46;;;;;;;3.35;2.20;;;14.00;77.70;;;;;;2283573;62;30524;-86
2021/12/12 09:53:10;;;;;;;4.30;2.17;;;14.20;78.10;;;;;;2291042;62;30128;-85
2021/12/12 09:56:20;;;;;;;3.25;2.20;;;14.10;77.80;;;;;;2290996;62;30211;-86
2021/12/12 09:59:03;;;;;;;1.95;1.85;;;14.20;77.60;;;;;;2255902;62;30189;-86
2021/12/12 10:02:01;;;;;;;2.10;2.00;;;14.20;77.90;;;;;;2283744;62;30322;-86
2021/12/12 10:04:31;;;;;;;2.00;1.90;;;14.20;77.90;;;;;;2284682;62;30422;-86
2021/12/12 10:07:25;;;;;;;2.72;2.50;;;14.20;78.10;;;;;;2277153;62;30191;-89
2021/12/12 10:10:01;;;;;;;4.10;2.53;;;14.20;77.50;;;;;;2290818;62;29977;-85
2021/12/12 10:12:30;;;;;;;2.38;2.17;;;14.10;77.90;;;;;;2290749;62;30176;-86
2021/12/12 10:15:11;;;;;;;2.92;2.28;;;14.20;78.10;;;;;;2283298;62;30378;-85
2021/12/12 10:17:52;;;;;;;2.28;2.08;;;14.20;77.80;;;;;;2276996;62;30109;-83
2021/12/12 10:20:24;;;;;;;2.30;2.10;;;14.20;78.00;;;;;;2277341;62;30521;-85
2021/12/12 10:22:54;;;;;;;3.97;2.72;;;14.20;77.70;;;;;;2276821;62;30640;-84
2021/12/12 10:25:27;;;;;;;2.78;2.35;;;14.20;77.80;;;;;;2290717;62;29974;-82
2021/12/12 10:28:00;;;;;;;2.53;2.30;;;14.20;77.70;;;;;;2280925;62;30231;-80
2021/12/12 10:30:33;;;;;;;2.70;2.33;;;14.20;77.70;;;;;;2276806;62;30239;-83
2021/12/12 10:33:24;;;;;;;2.40;2.20;;;14.20;77.60;;;;;;2276912;62;30267;-79
2021/12/12 10:36:10;;;;;;;4.30;2.35;;;14.20;77.00;;;;;;2288942;62;30293;-80
2021/12/12 10:38:38;;;;;;;2.60;2.40;;;14.20;77.10;;;;;;2285102;62;30315;-76
2021/12/12 10:41:28;;;;;;;2.60;2.40;;;14.20;77.50;;;;;;2285164;62;30509;-80
2021/12/12 10:44:05;;;;;;;2.65;2.45;;;14.20;76.90;;;;;;2285170;62;30111;-82
2021/12/12 10:46:50;;;;;;;2.67;2.47;;;14.20;77.20;;;;;;2285095;62;30177;-84
2021/12/12 10:49:21;;;;;;;2.67;2.47;;;14.30;77.30;;;;;;2284803;62;30112;-82
2021/12/12 10:51:50;;;;;;;2.63;2.45;;;14.30;77.10;;;;;;2277755;62;30245;-84
2021/12/12 10:54:28;;;;;;;2.72;2.30;;;14.30;77.10;;;;;;2277670;62;30025;-87
2021/12/12 10:57:16;;;;;;;2.78;2.58;;;14.30;77.00;;;;;;2271126;62;30269;-85
2021/12/12 10:59:46;;;;;;;2.95;2.60;;;14.30;76.70;;;;;;2278212;62;30363;-88
2021/12/12 11:02:19;;;;;;;2.63;2.42;;;14.30;77.00;;;;;;2277635;62;30434;-82
2021/12/12 11:04:51;;;;;;;2.63;2.42;;;14.30;77.10;;;;;;2284753;62;30209;-79
2021/12/12 11:07:28;;;;;;;2.65;2.45;;;14.20;77.00;;;;;;2271060;62;30147;-77
2021/12/12 11:10:17;;;;;;;2.75;2.50;;;14.30;77.00;;;;;;2277374;62;30137;-80
2021/12/12 11:12:51;;;;;;;2.28;2.17;;;14.30;76.60;;;;;;2277382;62;30132;-82
2021/12/12 11:15:40;;;;;;;2.83;2.63;;;14.30;77.00;;;;;;2277739;62;30122;-83
2021/12/12 11:18:35;;;;;;;3.00;2.80;;;14.30;77.00;;;;;;2281089;62;30097;-81
2021/12/12 11:21:12;;;;;;;2.72;2.53;;;14.30;76.60;;;;;;2270928;62;30838;-81
2021/12/12 11:24:02;;;;;;;2.60;2.40;;;14.30;76.80;;;;;;2277355;62;30593;-81
2021/12/12 11:26:42;;;;;;;2.78;2.58;;;14.30;76.70;;;;;;2284947;62;30047;-80
2021/12/12 11:29:15;;;;;;;2.65;2.45;;;14.40;76.50;;;;;;2270880;62;30239;-80
2021/12/12 11:31:54;;;;;;;3.60;2.95;;;14.40;76.60;;;;;;2277361;62;31216;-79
2021/12/12 11:34:21;;;;;;;2.92;2.63;;;14.40;76.60;;;;;;2284800;62;31347;-85
2021/12/12 11:37:04;;;;;;;2.78;2.58;;;14.30;76.60;;;;;;2284847;62;30068;-78
2021/12/12 11:39:44;;;;;;;2.78;2.58;;;14.30;76.40;;;;;;2277268;62;30033;-83
2021/12/12 11:42:21;;;;;;;2.40;2.20;;;14.40;76.70;;;;;;2277358;62;30370;-88
2021/12/12 11:45:10;;;;;;;3.03;2.72;;;14.30;76.50;;;;;;2270735;62;30160;-86
2021/12/12 11:48:14;;;;;;;3.03;2.55;;;14.40;76.30;;;;;;2278628;62;30220;-79
2021/12/12 11:50:46;;;;;;;3.33;2.60;;;14.30;76.40;;;;;;2283208;62;30494;-84
2021/12/12 11:53:31;;;;;;;2.70;2.50;;;14.40;77.30;;;;;;2276968;62;30126;-83
2021/12/12 11:56:24;;;;;;;2.72;2.53;;;14.30;76.50;;;;;;2278027;62;30398;-77
2021/12/12 11:59:11;;;;;;;2.88;2.58;;;14.40;76.50;;;;;;2272151;62;30274;-82
2021/12/12 12:01:51;;;;;;;2.70;2.50;;;14.40;76.50;;;;;;2267755;62;30683;-78
2021/12/12 12:04:35;;;;;;;2.53;2.33;;;14.40;76.50;;;;;;2275702;62;30277;-81
2021/12/12 12:07:19;;;;;;;2.35;2.10;;;14.50;76.30;;;;;;2284116;62;30128;-83
2021/12/12 12:10:02;;;;;;;2.35;2.15;;;14.40;76.30;;;;;;2279507;62;30499;-85
2021/12/12 12:13:06;;;;;;;2.65;2.45;;;14.40;76.50;;;;;;2282997;62;32450;-85
2021/12/12 12:15:54;;;;;;;2.35;2.17;;;14.40;76.40;;;;;;2284233;62;30127;-86
2021/12/12 12:18:40;;;;;;;2.50;2.30;;;14.40;76.50;;;;;;2277079;62;30744;-85
2021/12/12 12:21:22;;;;;;;4.05;2.30;;;14.40;76.60;;;;;;2284080;62;30374;-85
2021/12/12 12:27:01;;;;;;;3.50;2.28;;;14.30;76.70;;;;;;2284512;62;31612;-86
2021/12/12 12:29:32;;;;;;;2.47;2.28;;;14.40;76.90;;;;;;2278932;62;30172;-85
2021/12/12 12:32:37;;;;;;;2.03;1.92;;;14.40;76.80;;;;;;2284488;62;30078;-86
2021/12/12 12:35:45;;;;;;;2.30;2.20;;;14.50;76.80;;;;;;2284477;62;30144;-79
2021/12/12 12:38:50;;;;;;;2.58;2.08;;;14.60;76.70;;;;;;2266199;62;30130;-77
2021/12/12 12:41:28;;;;;;;2.40;2.15;;;14.70;76.40;;;;;;2284478;62;30644;-77
2021/12/12 12:44:47;;;;;;;1.98;1.88;;;14.70;76.10;;;;;;2284638;62;30241;-78
2021/12/12 12:48:10;;;;;;;3.00;1.90;;;14.80;76.10;;;;;;2280498;62;30701;-78
2021/12/12 12:50:57;;;;;;;1.90;1.80;;;14.90;76.10;;;;;;2280550;62;31941;-76
2021/12/12 12:53:58;;;;;;;1.75;1.60;;;14.90;75.90;;;;;;2284083;62;30236;-78
2021/12/12 12:56:42;;;;;;;6.65;1.85;;;15.00;75.80;;;;;;2276905;62;30193;-91
2021/12/12 12:59:46;;;;;;;2.00;1.80;;;15.00;75.60;;;;;;2284176;62;30183;-86
2021/12/12 13:02:14;;;;;;;3.38;1.42;;;15.10;75.50;;;;;;2262836;62;30293;-80
2021/12/12 13:05:06;;;;;;;3.28;1.42;;;15.20;75.40;;;;;;2276928;62;30412;-86
2021/12/12 13:07:41;;;;;;;2.25;1.60;;;15.20;75.30;;;;;;2263253;62;30376;-85
2021/12/12 13:10:11;;;;;;;2.25;1.30;;;15.40;75.20;;;;;;2283997;62;30213;-82
2021/12/12 13:12:55;;;;;;;3.47;1.50;;;15.40;75.00;;;;;;2276890;62;29974;-83
2021/12/12 13:15:45;;;;;;;3.35;1.40;;;15.50;74.90;;;;;;2284183;62;30566;-88
2021/12/12 13:18:16;;;;;;;3.42;1.55;;;15.60;74.70;;;;;;2284017;62;30065;-87
2021/12/12 13:20:50;;;;;;;1.35;1.25;;;15.60;74.60;;;;;;2284446;62;30144;-85
2021/12/12 13:23:47;;;;;;;1.42;1.33;;;15.70;74.60;;;;;;2284222;62;31061;-83
2021/12/12 13:26:19;;;;;;;1.45;1.35;;;15.80;74.40;;;;;;2284449;62;30229;-83
2021/12/12 13:28:48;;;;;;;2.45;1.50;;;15.80;74.50;;;;;;2270377;62;30144;-83
2021/12/12 13:31:20;;;;;;;1.30;1.20;;;15.80;74.40;;;;;;2284038;62;30291;-87
2021/12/12 13:34:34;;;;;;;1.40;1.30;;;15.80;74.30;;;;;;2284304;62;30142;-85
2021/12/12 13:37:24;;;;;;;1.48;1.40;;;15.90;74.00;;;;;;2268451;62;30578;-86
2021/12/12 13:40:02;;;;;;;1.30;1.20;;;15.90;74.00;;;;;;2284214;62;30676;-82
2021/12/12 13:42:56;;;;;;;1.38;1.27;;;15.90;73.90;;;;;;2284148;62;30011;-84
2021/12/12 13:45:25;;;;;;;2.70;1.20;;;16.00;73.80;;;;;;2277416;62;30060;-84
2021/12/12 13:48:20;;;;;;;1.05;1.05;;;15.90;73.90;;;;;;2276376;62;30103;-84
2021/12/12 13:50:53;;;;;;;1.70;1.10;;;16.00;73.50;;;;;;2247551;62;30469;-86
2021/12/12 13:53:57;;;;;;;1.23;1.23;;;16.00;73.80;;;;;;2276742;62;30261;-86
2021/12/12 13:56:34;;;;;;;1.17;1.17;;;16.00;73.50;;;;;;2275799;62;30291;-85
2021/12/12 13:59:22;;;;;;;1.17;1.02;;;16.10;73.70;;;;;;2268633;62;30181;-84
2021/12/12 14:01:58;;;;;;;0.93;0.93;;;16.10;73.70;;;;;;2275754;62;29958;-86
2021/12/12 14:04:25;;;;;;;2.40;1.00;;;16.10;73.60;;;;;;2268636;62;30019;-84
2021/12/12 14:06:51;;;;;;;1.10;1.10;;;16.10;73.60;;;;;;2268113;62;30805;-88
2021/12/12 14:09:19;;;;;;;1.13;1.13;;;16.10;74.30;;;;;;2267295;62;30013;-85
2021/12/12 14:11:45;;;;;;;1.67;1.10;;;16.10;73.50;;;;;;2268031;62;30079;-82
2021/12/12 14:14:30;;;;;;;1.13;1.02;;;16.10;73.50;;;;;;2268937;62;30524;-84
2021/12/12 14:17:03;;;;;;;0.85;0.85;;;16.10;73.30;;;;;;2270053;62;30059;-85
2021/12/12 14:19:43;;;;;;;1.00;1.00;;;16.10;73.30;;;;;;2263118;62;30463;-89
2021/12/12 14:22:09;;;;;;;2.75;0.95;;;16.10;73.30;;;;;;2270023;62;30165;-85
2021/12/12 14:24:37;;;;;;;1.92;1.20;;;16.10;73.40;;;;;;2269786;62;30038;-90
2021/12/12 14:27:05;;;;;;;1.98;0.88;;;16.20;73.40;;;;;;2262751;62;30233;-80
2021/12/12 14:29:33;;;;;;;1.38;0.73;;;16.20;73.30;;;;;;2269771;62;31620;-84
2021/12/12 14:32:02;;;;;;;2.55;0.90;;;16.20;73.30;;;;;;2277106;62;30028;-86
2021/12/12 14:34:42;;;;;;;2.00;0.93;;;16.20;73.30;;;;;;2276993;62;29996;-87
2021/12/12 14:37:15;;;;;;;1.13;0.85;;;16.20;73.10;;;;;;2264371;62;30088;-84
2021/12/12 14:39:41;;;;;;;1.40;0.68;;;16.20;73.20;;;;;;2270266;62;30271;-85
2021/12/12 14:42:24;;;;;;;1.00;1.00;;;16.20;73.20;;;;;;2269417;62;30117;-84
2021/12/12 14:44:55;;;;;;;0.73;0.73;;;16.20;73.00;;;;;;2277046;62;30105;-85
2021/12/12 14:47:32;;;;;;;1.25;0.80;;;16.20;73.20;;;;;;2263007;62;30262;-87
2021/12/12 14:50:17;;;;;;;1.27;0.70;;;16.20;73.20;;;;;;2269441;62;30205;-84
2021/12/12 14:52:44;;;;;;;1.02;0.93;;;16.10;73.10;;;;;;2269788;62;30287;-84
2021/12/12 14:55:22;;;;;;;0.68;0.68;;;16.10;73.50;;;;;;2269484;62;30119;-85
2021/12/12 14:57:51;;;;;;;0.65;0.65;;;16.10;73.40;;;;;;2269868;62;30769;-84
2021/12/12 15:00:22;;;;;;;0.70;0.70;;;16.10;73.50;;;;;;2276856;62;30162;-83
2021/12/12 15:02:50;;;;;;;0.70;0.70;;;16.10;73.40;;;;;;2269274;62;30103;-87
2021/12/12 15:05:22;;;;;;;1.20;0.73;;;16.10;73.40;;;;;;2276946;62;30714;-91
2021/12/12 15:07:49;;;;;;;0.65;0.65;;;16.10;73.40;;;;;;2269507;62;30933;-86
2021/12/12 15:10:34;;;;;;;0.80;0.80;;;16.10;73.40;;;;;;2269386;62;30513;-86
2021/12/12 15:13:02;;;;;;;3.13;0.90;;;16.10;73.40;;;;;;2283246;62;30026;-92
2021/12/12 15:15:36;;;;;;;1.10;1.02;;;16.10;73.50;;;;;;2269762;62;30150;-87
2021/12/12 15:18:07;;;;;;;0.90;0.80;;;16.00;73.60;;;;;;2269639;62;30064;-77
2021/12/12 15:20:35;;;;;;;5.33;1.10;;;16.10;73.80;;;;;;2269847;62;30532;-72
2021/12/12 15:23:10;;;;;;;1.17;1.17;;;16.00;74.70;;;;;;2276569;62;29958;-74
2021/12/12 15:25:45;;;;;;;1.10;1.00;;;16.10;75.70;;;;;;2276762;62;30144;-73
2021/12/12 15:28:17;;;;;;;2.08;1.40;;;16.10;76.40;;;;;;2269575;62;30765;-73
2021/12/12 15:30:52;;;;;;;2.42;1.40;;;16.10;77.20;;;;;;2276449;62;30500;-73
2021/12/12 15:33:20;;;;;;;1.92;1.27;;;16.10;76.70;;;;;;2276648;62;30084;-80
2021/12/12 15:35:47;;;;;;;1.30;1.20;;;16.10;77.00;;;;;;2268347;62;30041;-73
2021/12/12 15:38:16;;;;;;;1.10;1.00;;;16.10;77.10;;;;;;2273721;62;30828;-72
2021/12/12 15:40:43;;;;;;;2.65;1.17;;;16.10;76.80;;;;;;2274831;62;30198;-73
2021/12/12 15:43:20;;;;;;;5.13;1.40;;;16.10;76.60;;;;;;2262578;62;30480;-73
2021/12/12 15:45:48;;;;;;;1.13;1.02;;;16.10;76.30;;;;;;2269139;62;29906;-72
2021/12/12 15:48:28;;;;;;;1.75;1.13;;;16.00;76.10;;;;;;2276488;62;30208;-75
2021/12/12 15:50:54;;;;;;;3.22;1.20;;;16.00;75.70;;;;;;2269901;62;30131;-72
2021/12/12 15:53:23;;;;;;;1.27;1.00;;;16.00;75.60;;;;;;2276383;62;30160;-73
2021/12/12 15:55:56;;;;;;;2.25;1.20;;;16.00;76.10;;;;;;2269180;62;30040;-73
2021/12/12 15:58:25;;;;;;;1.35;1.10;;;16.00;75.20;;;;;;2275590;62;31487;-74
2021/12/12 16:00:55;;;;;;;1.00;0.90;;;16.00;75.00;;;;;;2275570;62;30165;-74
2021/12/12 16:03:24;;;;;;;2.08;0.93;;;16.00;74.90;;;;;;2284053;62;30115;-73
2021/12/12 16:05:57;;;;;;;2.00;0.70;;;16.00;74.90;;;;;;2270233;62;30187;-74
2021/12/12 16:08:25;;;;;;;2.08;0.75;;;16.00;74.70;;;;;;2277197;62;30833;-73
2021/12/12 16:10:57;;;;;;;1.83;0.90;;;16.00;74.70;;;;;;2277199;62;30963;-73
2021/12/12 16:13:41;;;;;;;1.65;0.98;;;16.00;74.50;;;;;;2284535;62;30096;-73
2021/12/12 16:16:13;;;;;;;1.95;1.00;;;16.00;74.70;;;;;;2277435;62;30149;-74
2021/12/12 16:18:44;;;;;;;1.52;0.88;;;16.00;74.40;;;;;;2277162;62;30104;-75
2021/12/12 16:21:13;;;;;;;1.52;0.70;;;16.00;74.50;;;;;;2277270;62;30088;-75
2021/12/12 16:23:51;;;;;;;0.60;0.60;;;16.00;74.40;;;;;;2270409;62;30026;-74
2021/12/12 16:26:27;;;;;;;1.25;0.70;;;15.90;74.50;;;;;;2270320;62;30122;-74
2021/12/12 16:28:54;;;;;;;0.57;0.57;;;16.00;74.50;;;;;;2284350;62;30870;-74
2021/12/12 16:31:20;;;;;;;2.35;0.90;;;15.90;74.40;;;;;;2270225;62;30746;-74
2021/12/12 16:33:54;;;;;;;0.77;0.77;;;15.90;74.40;;;;;;2283955;62;30267;-73
2021/12/12 16:36:37;;;;;;;0.63;0.63;;;15.90;74.40;;;;;;2270837;62;30277;-75
2021/12/12 16:39:11;;;;;;;1.05;1.00;;;15.90;74.70;;;;;;2284395;62;30465;-74
2021/12/12 16:41:56;;;;;;;0.85;0.70;;;15.90;74.50;;;;;;2284152;62;30348;-74
2021/12/12 16:44:34;;;;;;;1.67;0.82;;;15.90;74.50;;;;;;2271155;62;30277;-74
2021/12/12 16:47:03;;;;;;;1.95;0.85;;;15.90;74.70;;;;;;2277091;62;30214;-74
2021/12/12 16:49:32;;;;;;;0.70;0.65;;;15.90;74.50;;;;;;2270302;62;30083;-73
2021/12/12 16:52:13;;;;;;;1.52;0.70;;;15.90;74.40;;;;;;2277028;62;30708;-72
2021/12/12 16:54:53;;;;;;;0.43;0.43;;;15.90;74.60;;;;;;2284175;62;30091;-74
2021/12/12 16:57:33;;;;;;;0.60;0.60;;;15.90;74.60;;;;;;2276896;62;30550;-75
2021/12/12 17:00:34;;;;;;;0.60;0.60;;;15.90;74.70;;;;;;2270529;62;30851;-75
2021/12/12 17:03:05;;;;;;;2.53;0.90;;;15.90;74.70;;;;;;2275168;62;30571;-74
2021/12/12 17:05:33;;;;;;;1.98;0.60;;;16.00;74.70;;;;;;2276919;62;30201;-74
2021/12/12 17:08:14;;;;;;;1.75;0.70;;;16.00;74.60;;;;;;2283858;62;30436;-74
2021/12/12 17:10:51;;;;;;;0.60;0.60;;;16.00;74.70;;;;;;2276518;62;30354;-73
2021/12/12 17:13:17;;;;;;;0.70;0.70;;;16.00;74.60;;;;;;2270374;62;31920;-75
2021/12/12 17:15:47;;;;;;;0.57;0.57;;;16.00;74.50;;;;;;2283983;62;30196;-74
2021/12/12 17:18:24;;;;;;;0.85;0.77;;;16.00;74.50;;;;;;2281262;62;30564;-73
2021/12/12 17:20:52;;;;;;;0.60;0.60;;;15.90;74.60;;;;;;2275816;62;30032;-73
2021/12/12 17:23:41;;;;;;;0.65;0.65;;;15.90;74.70;;;;;;2275676;62;30558;-74
2021/12/12 17:26:08;;;;;;;0.65;0.65;;;15.90;74.80;;;;;;2283084;62;30458;-77
2021/12/12 17:28:35;;;;;;;0.70;0.70;;;15.90;74.70;;;;;;2282865;62;30178;-76
2021/12/12 17:31:08;;;;;;;0.55;0.55;;;15.90;74.70;;;;;;2275548;62;32506;-73
2021/12/12 17:33:49;;;;;;;0.88;0.88;;;15.90;74.70;;;;;;2283047;62;30670;-75
2021/12/12 17:36:23;;;;;;;0.68;0.68;;;15.90;74.70;;;;;;2275955;62;30117;-74
2021/12/12 17:38:55;;;;;;;0.90;0.90;;;15.90;74.70;;;;;;2282027;62;30061;-74
2021/12/12 17:41:28;;;;;;;1.00;1.00;;;15.90;74.80;;;;;;2283094;62;30755;-75
2021/12/12 17:44:15;;;;;;;1.23;0.90;;;15.90;74.80;;;;;;2282855;62;31630;-75
2021/12/12 17:47:20;;;;;;;1.50;0.82;;;15.90;74.80;;;;;;2283651;62;30394;-74
2021/12/12 17:50:16;;;;;;;1.02;0.90;;;15.90;75.40;;;;;;2263201;62;30229;-73
2021/12/12 17:52:51;;;;;;;1.27;1.27;;;15.90;75.00;;;;;;2283722;62;30698;-73
2021/12/12 17:55:39;;;;;;;1.05;0.85;;;15.90;74.90;;;;;;2284411;62;30245;-73
2021/12/12 17:58:17;;;;;;;1.33;0.85;;;15.90;74.90;;;;;;2284797;62;30275;-76
2021/12/12 18:00:45;;;;;;;0.85;0.85;;;15.90;74.80;;;;;;2285257;62;30894;-76
2021/12/12 18:03:15;;;;;;;0.90;0.90;;;15.90;74.80;;;;;;2285241;62;30892;-73
2021/12/12 18:05:46;;;;;;;1.23;1.17;;;15.90;74.90;;;;;;2285026;62;30129;-74
2021/12/12 18:08:21;;;;;;;2.22;1.13;;;16.00;75.00;;;;;;2271374;62;30273;-74
2021/12/12 18:10:51;;;;;;;1.67;1.10;;;16.00;75.00;;;;;;2285434;62;30468;-74
2021/12/12 18:13:25;;;;;;;1.30;1.20;;;16.00;75.00;;;;;;2277694;62;30091;-74
2021/12/12 18:16:02;;;;;;;1.10;1.10;;;16.00;75.00;;;;;;2277852;62;30561;-74
2021/12/12 18:18:40;;;;;;;2.70;1.45;;;16.00;74.90;;;;;;2274123;62;31266;-75
2021/12/12 18:21:14;;;;;;;1.98;1.80;;;16.00;75.00;;;;;;2281192;62;30366;-72
2021/12/12 18:23:43;;;;;;;2.72;1.92;;;16.00;75.40;;;;;;2283347;62;30204;-73
2021/12/12 18:26:11;;;;;;;2.00;1.80;;;16.00;75.70;;;;;;2283865;62;30460;-73
2021/12/12 18:28:43;;;;;;;2.30;1.60;;;16.10;75.80;;;;;;2270096;62;30216;-74
2021/12/12 18:31:17;;;;;;;3.08;1.60;;;16.10;75.90;;;;;;2283495;62;32743;-75
2021/12/12 18:33:54;;;;;;;2.05;1.40;;;16.20;76.00;;;;;;2283397;62;30267;-74
2021/12/12 18:36:40;;;;;;;2.95;1.80;;;16.30;75.80;;;;;;2283248;62;30231;-74
2021/12/12 18:39:32;;;;;;;2.63;1.77;;;16.40;76.50;;;;;;2272837;62;30450;-74
2021/12/12 18:42:04;;;;;;;1.92;1.60;;;16.40;75.70;;;;;;2273567;62;30310;-74
2021/12/12 18:44:33;;;;;;;2.92;1.95;;;16.50;75.60;;;;;;2276519;62;31018;-75
2021/12/12 18:47:04;;;;;;;3.72;2.13;;;16.50;75.40;;;;;;2276633;62;30509;-73
2021/12/12 18:49:42;;;;;;;11.48;3.45;;;16.50;75.40;;;;;;2277907;62;30230;-75
2021/12/12 18:52:29;;;;;;;11.38;5.03;;;16.50;75.40;;;;;;2269316;62;30222;-75
2021/12/12 18:55:06;;;;;;;13.10;4.75;;;16.50;75.70;;;;;;2270350;62;30294;-73
2021/12/12 18:57:48;;;;;;;11.05;4.65;;;16.50;75.90;;;;;;2270847;62;30741;-74
2021/12/12 19:00:16;;;;;;;;;;;16.50;76.00;;;;;;2271562;62;30733;-74
2021/12/12 19:02:43;;;;;;;7.88;3.45;;;16.50;76.50;;;;;;2277610;62;30099;-74
2021/12/12 19:05:22;;;;;;;7.72;3.90;;;16.50;76.00;;;;;;2270663;62;29997;-74
2021/12/12 19:07:48;;;;;;;6.30;3.55;;;16.60;76.20;;;;;;2279991;62;30875;-73
2021/12/12 19:10:15;;;;;;;10.75;4.18;;;16.60;75.90;;;;;;2276475;62;30170;-74
2021/12/12 19:12:47;;;;;;;8.93;4.03;;;16.60;75.80;;;;;;2276727;62;30596;-73
2021/12/12 19:15:18;;;;;;;7.43;3.38;;;16.70;75.80;;;;;;2276301;62;30624;-73
2021/12/12 19:17:55;;;;;;;;;;;16.70;75.70;;;;;;2277245;62;30612;-74
2021/12/12 19:20:20;;;;;;;5.57;3.35;;;16.70;75.70;;;;;;2282418;62;30292;-72
2021/12/12 19:22:50;;;;;;;5.30;2.70;;;16.80;75.50;;;;;;2284558;62;30227;-73
2021/12/12 19:25:22;;;;;;;5.72;2.72;;;16.80;75.40;;;;;;2284778;62;30053;-74
2021/12/12 19:27:48;;;;;;;6.25;3.10;;;16.80;75.40;;;;;;2284900;62;30653;-74
2021/12/12 19:30:29;;;;;;;7.70;3.10;;;16.80;75.30;;;;;;2277259;62;30159;-73
2021/12/12 19:32:55;;;;;;;4.82;2.42;;;16.90;75.40;;;;;;2271077;62;30477;-74
2021/12/12 19:35:32;;;;;;;3.30;2.40;;;16.90;76.00;;;;;;2277255;62;30276;-74
2021/12/12 19:38:00;;;;;;;6.07;2.55;;;16.90;75.40;;;;;;2277263;62;30519;-74
2021/12/12 19:40:33;;;;;;;5.90;2.47;;;16.90;75.30;;;;;;2270769;62;30406;-74
2021/12/12 19:43:10;;;;;;;5.82;2.40;;;16.90;75.30;;;;;;2284830;62;30272;-74
2021/12/12 19:45:42;;;;;;;3.33;2.25;;;16.90;75.30;;;;;;2277395;62;30054;-74
2021/12/12 19:48:08;;;;;;;4.22;2.30;;;17.00;75.40;;;;;;2284848;62;30123;-74
2021/12/12 19:50:39;;;;;;;3.13;2.20;;;17.00;75.40;;;;;;2284499;62;30240;-73
2021/12/12 19:53:08;;;;;;;4.43;2.17;;;17.00;75.40;;;;;;2284794;62;30603;-74
2021/12/12 19:55:37;;;;;;;4.72;2.28;;;17.00;75.30;;;;;;2284823;62;30153;-74
2021/12/12 19:58:09;;;;;;;4.30;2.20;;;17.00;75.30;;;;;;2284391;62;30266;-73
2021/12/12 20:00:37;;;;;;;6.40;2.40;;;17.10;75.30;;;;;;2284645;62;30119;-75
2021/12/12 20:03:25;;;;;;;5.07;2.95;;;17.00;75.30;;;;;;2277312;62;30316;-73
2021/12/12 20:05:58;;;;;;;3.00;2.80;;;17.00;75.10;;;;;;2276946;62;30315;-73
2021/12/12 20:08:33;;;;;;;3.50;3.10;;;17.10;75.10;;;;;;2283917;62;30193;-73
2021/12/12 20:11:02;;;;;;;4.00;3.13;;;17.10;75.10;;;;;;2284484;62;30116;-72
2021/12/12 20:13:31;;;;;;;4.35;3.08;;;17.10;75.30;;;;;;2276670;62;30290;-74
2021/12/12 20:15:57;;;;;;;4.32;3.15;;;17.10;74.90;;;;;;2284499;62;30879;-75
2021/12/12 20:18:25;;;;;;;3.47;3.05;;;17.20;74.80;;;;;;2284260;62;30749;-74
2021/12/12 20:20:53;;;;;;;4.15;3.85;;;17.20;74.70;;;;;;2284354;62;30011;-73
2021/12/12 20:23:24;;;;;;;4.38;3.97;;;17.20;74.60;;;;;;2284467;62;30113;-74
2021/12/12 20:26:05;;;;;;;4.18;3.88;;;17.30;74.50;;;;;;2284126;62;31035;-73
2021/12/12 20:28:34;;;;;;;3.85;3.55;;;17.30;74.40;;;;;;2284431;62;31763;-74
2021/12/12 20:31:16;;;;;;;3.97;3.67;;;17.30;74.30;;;;;;2277167;62;30209;-73
2021/12/12 20:33:42;;;;;;;4.32;4.03;;;17.40;74.20;;;;;;2283998;62;30178;-74
2021/12/12 20:36:39;;;;;;;4.80;4.40;;;17.40;74.10;;;;;;2284329;62;30797;-72
2021/12/12 20:39:25;;;;;;;4.72;4.28;;;17.50;74.00;;;;;;2284402;62;30593;-72
2021/12/12 20:42:13;;;;;;;4.60;4.30;;;17.50;74.00;;;;;;2284307;62;30153;-72
2021/12/12 20:44:57;;;;;;;4.60;4.30;;;17.50;73.80;;;;;;2284344;62;30076;-73
2021/12/12 20:47:29;;;;;;;4.93;4.60;;;17.50;73.80;;;;;;2284211;62;30120;-75
2021/12/12 20:50:05;;;;;;;4.72;4.32;;;17.60;73.80;;;;;;2284610;62;29975;-76
2021/12/12 20:52:34;;;;;;;4.55;4.25;;;17.60;73.80;;;;;;2284558;62;30119;-75
2021/12/12 20:55:13;;;;;;;4.38;3.97;;;17.60;73.70;;;;;;2270086;62;30156;-75
2021/12/12 20:57:45;;;;;;;4.35;4.15;;;17.60;73.60;;;;;;2276838;62;30299;-76
2021/12/12 21:00:21;;;;;;;4.50;3.80;;;17.60;73.60;;;;;;2268864;62;30526;-74
2021/12/12 21:02:50;;;;;;;3.80;3.60;;;17.60;73.50;;;;;;2261948;62;30242;-75
2021/12/12 21:05:24;;;;;;;4.18;3.88;;;17.60;73.50;;;;;;2268117;62;32865;-74
2021/12/12 21:07:50;;;;;;;3.55;3.35;;;17.70;73.50;;;;;;2276525;62;30920;-74
2021/12/12 21:10:20;;;;;;;3.00;2.90;;;17.70;73.50;;;;;;2284420;62;30446;-75
2021/12/12 21:12:58;;;;;;;3.17;3.08;;;17.70;73.50;;;;;;2284213;62;30355;-75
2021/12/12 21:15:29;;;;;;;3.38;3.20;;;17.70;73.40;;;;;;2284137;62;29962;-80
2021/12/12 21:17:56;;;;;;;3.10;2.90;;;17.70;73.40;;;;;;2277316;62;30315;-77
2021/12/12 21:20:24;;;;;;;6.50;3.28;;;17.70;73.30;;;;;;2275486;62;30517;-75
2021/12/12 21:23:00;;;;;;;2.67;2.58;;;17.70;73.30;;;;;;2282489;62;30316;-74
2021/12/12 21:25:37;;;;;;;2.95;2.78;;;17.70;73.30;;;;;;2269500;62;30276;-75
2021/12/12 21:28:08;;;;;;;4.03;2.85;;;17.70;73.20;;;;;;2276405;62;30127;-75
2021/12/12 21:30:46;;;;;;;2.78;2.63;;;17.60;73.30;;;;;;2276299;62;30193;-76
2021/12/12 21:33:37;;;;;;;2.90;2.40;;;17.60;73.30;;;;;;2268145;62;30178;-77
2021/12/12 21:36:34;;;;;;;2.83;2.63;;;17.70;73.20;;;;;;2274936;62;30397;-76
2021/12/12 21:39:25;;;;;;;2.60;2.50;;;17.70;73.10;;;;;;2267494;62;30820;-77
2021/12/12 21:42:19;;;;;;;2.60;2.40;;;17.70;73.10;;;;;;2274999;62;30175;-77
2021/12/12 21:44:57;;;;;;;2.50;2.30;;;17.70;73.00;;;;;;2274778;62;30090;-75
2021/12/12 21:47:26;;;;;;;2.30;2.20;;;17.70;73.00;;;;;;2271032;62;32754;-76
2021/12/12 21:50:15;;;;;;;2.28;2.17;;;17.70;73.00;;;;;;2282201;62;30955;-75
2021/12/12 21:52:57;;;;;;;2.67;2.50;;;17.70;72.60;;;;;;2282442;62;30714;-76
2021/12/12 21:55:27;;;;;;;2.30;2.10;;;17.70;72.50;;;;;;2274909;62;30329;-75
2021/12/12 21:58:13;;;;;;;2.25;2.15;;;17.70;72.80;;;;;;2275574;62;30185;-76
2021/12/12 22:01:01;;;;;;;2.83;2.22;;;17.70;72.90;;;;;;2271156;62;30357;-76
2021/12/12 22:03:33;;;;;;;2.25;2.15;;;17.70;73.00;;;;;;2281896;62;30246;-77
2021/12/12 22:06:33;;;;;;;2.20;2.10;;;17.70;72.90;;;;;;2274606;62;30580;-76
2021/12/12 22:09:03;;;;;;;2.05;1.95;;;17.70;72.90;;;;;;2267873;62;30090;-76
2021/12/12 22:11:36;;;;;;;2.17;2.08;;;17.80;72.90;;;;;;2267434;62;31111;-76
2021/12/12 22:14:05;;;;;;;2.22;2.13;;;17.80;72.80;;;;;;2274886;62;30085;-75
2021/12/12 22:16:32;;;;;;;2.50;2.30;;;17.80;72.80;;;;;;2274904;62;30318;-75
2021/12/12 22:19:09;;;;;;;2.85;2.22;;;17.80;72.80;;;;;;2275163;62;30109;-76
2021/12/12 22:21:39;;;;;;;2.50;2.30;;;17.80;72.60;;;;;;2283047;62;30309;-76
2021/12/12 22:24:19;;;;;;;3.58;2.40;;;17.70;72.70;;;;;;2282760;62;32216;-76
2021/12/12 22:26:47;;;;;;;2.53;2.42;;;17.70;72.80;;;;;;2269840;62;30259;-78
2021/12/12 22:29:18;;;;;;;2.97;2.78;;;17.70;72.90;;;;;;2267391;62;30302;-76
2021/12/12 22:31:46;;;;;;;2.55;2.45;;;17.70;72.90;;;;;;2274849;62;30460;-74
2021/12/12 22:34:12;;;;;;;3.60;3.40;;;17.70;72.90;;;;;;2275834;62;30460;-74
2021/12/12 22:36:49;;;;;;;4.13;3.83;;;17.70;72.90;;;;;;2268661;62;30231;-74
2021/12/12 22:39:17;;;;;;;3.90;3.70;;;17.70;72.80;;;;;;2275851;62;30016;-76
2021/12/12 22:41:52;;;;;;;3.65;3.35;;;17.70;72.80;;;;;;2268632;62;30941;-75
2021/12/12 22:44:23;;;;;;;3.75;3.55;;;17.70;72.70;;;;;;2275962;62;30168;-74
2021/12/12 22:46:49;;;;;;;3.60;3.30;;;17.70;72.70;;;;;;2275767;62;30139;-75
2021/12/12 22:49:21;;;;;;;4.30;4.00;;;17.70;72.80;;;;;;2275939;62;30149;-75
2021/12/12 22:51:52;;;;;;;3.90;3.70;;;17.70;72.90;;;;;;2268579;62;31086;-75
2021/12/12 22:54:33;;;;;;;3.90;3.60;;;17.60;72.90;;;;;;2275523;62;30798;-76